createdAt,value
2023-03-18T00:02:16.157Z,10.18
2023-03-18T00:04:43.492Z,10.43
2023-03-18T00:07:10.875Z,9.23
2023-03-18T00:09:38.516Z,9.18
2023-03-18T00:12:06.506Z,8.52
2023-03-18T00:14:37.812Z,8.77
2023-03-18T00:17:06.026Z,8.82
2023-03-18T00:19:33.665Z,9.00
2023-03-18T00:22:00.669Z,8.60
2023-03-18T00:24:28.304Z,8.52
2023-03-18T00:26:56.018Z,8.90
2023-03-18T00:29:24.881Z,9.15
2023-03-18T00:31:52.069Z,8.82
2023-03-18T00:34:21.051Z,8.98
2023-03-18T00:36:50.848Z,8.38
2023-03-18T00:39:21.550Z,8.27
2023-03-18T00:41:48.895Z,8.95
2023-03-18T00:44:16.076Z,8.38
2023-03-18T00:46:43.563Z,8.43
2023-03-18T00:49:10.988Z,8.43
2023-03-18T00:51:39.497Z,8.13
2023-03-18T00:54:10.973Z,8.18
2023-03-18T00:56:39.231Z,8.10
2023-03-18T00:59:08.584Z,8.30
2023-03-18T01:01:36.689Z,8.93
2023-03-18T01:04:04.817Z,8.23
2023-03-18T01:06:35.575Z,8.57
2023-03-18T01:09:05.182Z,8.15
2023-03-18T01:11:33.321Z,8.18
2023-03-18T01:14:01.853Z,8.90
2023-03-18T01:16:30.090Z,8.73
2023-03-18T01:18:58.296Z,8.35
2023-03-18T01:21:25.466Z,8.57
2023-03-18T01:23:56.380Z,8.02
2023-03-18T01:26:26.045Z,7.95
2023-03-18T01:28:55.004Z,7.85
2023-03-18T01:31:24.192Z,8.50
2023-03-18T01:33:52.620Z,8.57
2023-03-18T01:36:19.622Z,8.35
2023-03-18T01:39:00.694Z,7.97
2023-03-18T01:41:28.688Z,8.80
2023-03-18T01:43:55.945Z,8.60
2023-03-18T01:46:39.308Z,9.15
2023-03-18T01:49:15.544Z,8.57
2023-03-18T01:51:50.274Z,8.52
2023-03-18T01:54:19.778Z,8.35
2023-03-18T01:56:49.368Z,8.43
2023-03-18T01:59:18.032Z,9.35
2023-03-18T02:02:02.793Z,9.57
2023-03-18T02:04:39.736Z,9.30
2023-03-18T02:07:07.946Z,8.95
2023-03-18T02:09:35.256Z,9.95
2023-03-18T02:12:06.356Z,8.80
2023-03-18T02:14:33.945Z,9.63
2023-03-18T02:17:15.227Z,8.68
2023-03-18T02:20:20.464Z,9.95
2023-03-18T02:22:58.950Z,8.65
2023-03-18T02:25:55.205Z,8.48
2023-03-18T02:28:28.197Z,8.35
2023-03-18T02:31:01.365Z,8.75
2023-03-18T02:33:38.796Z,8.40
2023-03-18T02:36:20.296Z,8.55
2023-03-18T02:38:48.652Z,9.15
2023-03-18T02:41:28.533Z,8.68
2023-03-18T02:43:56.153Z,8.07
2023-03-18T02:46:47.619Z,8.52
2023-03-18T02:49:17.815Z,8.98
2023-03-18T02:51:46.502Z,9.95
2023-03-18T02:54:18.401Z,10.18
2023-03-18T02:56:46.024Z,9.27
2023-03-18T02:59:13.708Z,8.82
2023-03-18T03:01:46.838Z,8.43
2023-03-18T03:04:16.278Z,9.02
2023-03-18T03:06:44.716Z,8.80
2023-03-18T03:09:17.160Z,9.85
2023-03-18T03:11:47.166Z,8.90
2023-03-18T03:14:19.835Z,9.52
2023-03-18T03:16:51.818Z,8.98
2023-03-18T03:19:18.768Z,8.95
2023-03-18T03:21:46.042Z,8.77
2023-03-18T03:24:13.206Z,9.00
2023-03-18T03:26:40.470Z,9.50
2023-03-18T03:29:07.552Z,9.70
2023-03-18T03:31:35.086Z,10.05
2023-03-18T03:34:02.682Z,10.75
2023-03-18T03:36:30.779Z,11.50
2023-03-18T03:38:57.981Z,11.55
2023-03-18T03:41:26.353Z,10.68
2023-03-18T03:43:53.453Z,10.43
2023-03-18T03:46:20.800Z,10.95
2023-03-18T03:48:48.052Z,10.88
2023-03-18T03:51:15.475Z,10.95
2023-03-18T03:53:43.747Z,10.95
2023-03-18T03:56:11.965Z,11.07
2023-03-18T03:58:39.479Z,11.32
2023-03-18T04:01:08.500Z,12.13
2023-03-18T04:03:35.703Z,10.80
2023-03-18T04:06:07.466Z,11.35
2023-03-18T04:08:38.574Z,11.07
2023-03-18T04:11:05.792Z,11.43
2023-03-18T04:13:33.732Z,11.38
2023-03-18T04:16:01.065Z,11.90
2023-03-18T04:18:28.214Z,13.02
2023-03-18T04:20:55.700Z,13.05
2023-03-18T04:23:36.511Z,12.27
2023-03-18T04:26:05.328Z,12.65
2023-03-18T04:28:33.275Z,13.35
2023-03-18T04:31:01.788Z,14.02
2023-03-18T04:33:28.901Z,12.75
2023-03-18T04:35:56.514Z,13.90
2023-03-18T04:38:24.489Z,13.77
2023-03-18T04:40:53.185Z,13.80
2023-03-18T04:43:20.577Z,13.35
2023-03-18T04:45:50.502Z,13.63
2023-03-18T04:48:18.415Z,13.80
2023-03-18T04:50:46.560Z,13.55
2023-03-18T04:53:19.820Z,13.60
2023-03-18T04:55:50.781Z,12.95
2023-03-18T04:58:20.116Z,12.50
2023-03-18T05:00:59.700Z,13.48
2023-03-18T05:03:34.713Z,13.00
2023-03-18T05:06:02.997Z,13.10
2023-03-18T05:08:40.984Z,13.65
2023-03-18T05:11:08.189Z,11.65
2023-03-18T05:13:37.359Z,11.95
2023-03-18T05:16:06.574Z,12.25
2023-03-18T05:18:34.796Z,12.77
2023-03-18T05:21:05.139Z,12.23
2023-03-18T05:23:32.513Z,12.18
2023-03-18T05:26:00.000Z,13.07
2023-03-18T05:28:29.992Z,12.68
2023-03-18T05:31:24.786Z,12.68
2023-03-18T05:33:52.908Z,12.65
2023-03-18T05:36:20.863Z,12.85
2023-03-18T05:39:02.293Z,12.63
2023-03-18T05:41:30.977Z,12.45
2023-03-18T05:43:58.119Z,11.63
2023-03-18T05:46:29.003Z,12.23
2023-03-18T05:49:08.773Z,12.55
2023-03-18T05:51:46.412Z,12.50
2023-03-18T05:54:19.933Z,12.57
2023-03-18T05:56:47.212Z,12.48
2023-03-18T05:59:16.082Z,12.20
2023-03-18T06:01:50.592Z,12.00
2023-03-18T06:04:19.311Z,13.20
2023-03-18T06:06:46.990Z,13.07
2023-03-18T06:09:15.238Z,13.15
2023-03-18T06:11:45.589Z,12.68
2023-03-18T06:14:13.020Z,13.30
2023-03-18T06:16:42.145Z,13.45
2023-03-18T06:19:10.734Z,14.07
2023-03-18T06:21:39.700Z,13.60
2023-03-18T06:24:08.050Z,12.93
2023-03-18T06:26:35.620Z,13.48
2023-03-18T06:29:05.182Z,13.80
2023-03-18T06:31:33.781Z,14.30
2023-03-18T06:34:04.312Z,14.50
2023-03-18T06:36:34.791Z,15.10
2023-03-18T06:39:04.864Z,14.32
2023-03-18T06:41:33.496Z,15.43
2023-03-18T06:44:19.188Z,16.08
2023-03-18T06:46:47.281Z,15.77
2023-03-18T06:49:17.137Z,15.13
2023-03-18T06:51:51.363Z,14.85
2023-03-18T06:54:18.595Z,14.05
2023-03-18T06:56:46.757Z,13.52
2023-03-18T06:59:19.146Z,12.82
2023-03-18T07:01:47.055Z,12.02
2023-03-18T07:04:17.392Z,11.80
2023-03-18T07:06:45.449Z,11.00
2023-03-18T07:09:15.112Z,10.77
2023-03-18T07:11:44.143Z,10.63
2023-03-18T07:14:14.716Z,11.15
2023-03-18T07:16:43.337Z,11.02
2023-03-18T07:19:11.510Z,11.57
2023-03-18T07:21:40.025Z,11.90
2023-03-18T07:24:07.285Z,11.63
2023-03-18T07:26:35.383Z,9.70
2023-03-18T07:29:03.350Z,10.15
2023-03-18T07:31:30.865Z,10.45
2023-03-18T07:33:57.985Z,10.80
2023-03-18T07:36:26.835Z,10.00
2023-03-18T07:38:53.942Z,10.13
2023-03-18T07:41:21.182Z,10.52
2023-03-18T07:43:48.670Z,9.07
2023-03-18T07:46:15.892Z,9.27
2023-03-18T07:48:42.751Z,9.27
2023-03-18T07:51:10.229Z,9.15
2023-03-18T07:53:38.211Z,8.18
2023-03-18T07:56:06.064Z,7.25
2023-03-18T07:58:33.144Z,7.43
2023-03-18T08:01:00.593Z,7.03
2023-03-18T08:03:29.319Z,8.00
2023-03-18T08:05:57.323Z,6.53
2023-03-18T08:08:24.827Z,6.28
2023-03-18T08:10:57.233Z,7.22
2023-03-18T08:13:25.775Z,6.43
2023-03-18T08:15:54.052Z,8.00
2023-03-18T08:18:21.396Z,7.07
2023-03-18T08:20:49.253Z,6.53
2023-03-18T08:23:16.374Z,6.32
2023-03-18T08:25:48.088Z,8.07
2023-03-18T08:28:17.030Z,7.43
2023-03-18T08:30:44.913Z,8.52
2023-03-18T08:33:11.960Z,7.15
2023-03-18T08:35:43.747Z,7.28
2023-03-18T08:38:11.016Z,6.60
2023-03-18T08:40:41.262Z,7.32
2023-03-18T08:43:09.152Z,7.28
2023-03-18T08:45:37.726Z,6.47
2023-03-18T08:48:06.368Z,6.10
2023-03-18T08:50:36.010Z,6.10
2023-03-18T08:53:04.627Z,6.00
2023-03-18T08:55:37.178Z,6.28
2023-03-18T08:58:06.441Z,6.65
2023-03-18T09:00:37.680Z,5.72
2023-03-18T09:03:05.686Z,5.03
2023-03-18T09:05:33.186Z,5.40
2023-03-18T09:08:00.633Z,5.63
2023-03-18T09:10:30.143Z,4.53
2023-03-18T09:12:57.346Z,4.90
2023-03-18T09:15:24.887Z,5.50
2023-03-18T09:18:09.885Z,5.03
2023-03-18T09:20:39.150Z,7.15
2023-03-18T09:23:08.722Z,5.30
2023-03-18T09:25:36.254Z,4.80
2023-03-18T09:28:03.629Z,4.80
2023-03-18T09:30:32.011Z,4.60
2023-03-18T09:32:59.574Z,4.80
2023-03-18T09:35:29.073Z,4.78
2023-03-18T09:37:56.324Z,4.50
2023-03-18T09:40:36.260Z,4.43
2023-03-18T09:43:32.198Z,4.97
2023-03-18T09:46:21.927Z,4.50
2023-03-18T09:49:33.219Z,4.55
2023-03-18T09:52:19.051Z,4.43
2023-03-18T09:55:42.153Z,4.30
2023-03-18T10:00:48.280Z,4.10
2023-03-18T10:03:34.586Z,3.35
2023-03-18T10:06:17.972Z,3.70
2023-03-18T10:09:14.719Z,4.10
2023-03-18T10:11:47.867Z,3.50
2023-03-18T10:14:27.359Z,3.90
2023-03-18T10:17:30.136Z,3.55
2023-03-18T10:20:06.323Z,3.28
2023-03-18T10:22:57.662Z,3.35
2023-03-18T10:25:48.808Z,3.05
2023-03-18T10:28:56.431Z,3.30
2023-03-18T10:31:54.702Z,3.10
2023-03-18T10:34:33.768Z,3.30
2023-03-18T10:37:17.915Z,3.20
2023-03-18T10:39:48.362Z,3.30
2023-03-18T10:42:30.002Z,3.03
2023-03-18T10:45:17.241Z,2.83
2023-03-18T10:47:57.878Z,2.67
2023-03-18T10:51:03.796Z,2.75
2023-03-18T10:53:49.111Z,2.90
2023-03-18T10:56:16.146Z,2.50
2023-03-18T10:58:43.693Z,2.40
2023-03-18T11:01:19.077Z,2.40
2023-03-18T11:04:06.634Z,2.50
2023-03-18T11:06:55.829Z,2.63
2023-03-18T11:09:36.293Z,2.70
2023-03-18T11:12:19.006Z,3.38
2023-03-18T11:14:51.352Z,3.97
2023-03-18T11:17:28.042Z,3.00
2023-03-18T11:20:25.179Z,2.95
2023-03-18T11:22:56.056Z,3.28
2023-03-18T11:25:30.026Z,3.60
2023-03-18T11:28:06.443Z,3.72
2023-03-18T11:30:48.400Z,3.08
2023-03-18T11:33:17.804Z,3.38
2023-03-18T11:36:05.464Z,3.58
2023-03-18T11:38:38.180Z,3.10
2023-03-18T11:41:25.497Z,3.33
2023-03-18T11:44:00.070Z,4.97
2023-03-18T11:46:55.311Z,4.75
2023-03-18T11:49:28.511Z,5.40
2023-03-18T11:52:28.176Z,6.20
2023-03-18T11:55:20.176Z,7.40
2023-03-18T11:58:48.297Z,6.30
2023-03-18T12:01:39.847Z,11.32
2023-03-18T12:05:09.526Z,6.75
2023-03-18T12:08:20.687Z,6.40
2023-03-18T12:11:16.162Z,6.07
2023-03-18T12:14:52.277Z,5.75
2023-03-18T12:17:47.079Z,5.57
2023-03-18T12:20:49.479Z,4.65
2023-03-18T12:26:53.493Z,4.82
2023-03-18T12:29:57.992Z,5.05
2023-03-18T12:32:46.624Z,4.32
2023-03-18T12:35:35.140Z,3.97
2023-03-18T12:38:42.125Z,4.00
2023-03-18T12:41:39.659Z,3.83
2023-03-18T12:44:40.054Z,4.90
2023-03-18T12:47:29.804Z,5.18
2023-03-18T12:50:14.505Z,4.47
2023-03-18T12:52:48.338Z,3.90
2023-03-18T12:55:29.353Z,3.60
2023-03-18T12:58:19.042Z,4.07
2023-03-18T13:48:00.624Z,5.35
2023-03-18T13:50:37.356Z,4.10
2023-03-18T13:53:27.349Z,3.92
2023-03-18T13:55:57.728Z,4.53
2023-03-18T13:58:34.729Z,4.72
2023-03-18T14:01:29.205Z,5.22
2023-03-18T14:04:07.689Z,5.50
2023-03-18T14:06:34.913Z,4.85
2023-03-18T14:09:25.371Z,4.82
2023-03-18T14:12:20.579Z,4.13
2023-03-18T14:14:51.466Z,4.43
2023-03-18T14:17:58.656Z,4.85
2023-03-18T14:20:40.080Z,4.80
2023-03-18T14:23:37.215Z,5.18
2023-03-18T14:26:29.777Z,4.93
2023-03-18T14:29:26.529Z,4.50
2023-03-18T14:32:08.314Z,4.60
2023-03-18T14:34:58.955Z,5.00
2023-03-18T14:37:32.998Z,4.85
2023-03-18T14:40:28.064Z,5.03
2023-03-18T14:43:06.571Z,5.05
2023-03-18T14:45:44.754Z,5.53
2023-03-18T14:48:21.535Z,4.80
2023-03-18T14:50:53.255Z,5.60
2023-03-18T14:53:38.477Z,4.63
2023-03-18T14:56:17.578Z,5.00
2023-03-18T14:58:47.558Z,4.50
2023-03-18T15:01:17.675Z,4.07
2023-03-18T15:03:50.746Z,4.38
2023-03-18T15:06:25.492Z,4.75
2023-03-18T15:09:09.725Z,5.10
2023-03-18T15:11:44.452Z,4.85
2023-03-18T15:14:19.793Z,5.32
2023-03-18T15:16:53.489Z,7.07
2023-03-18T15:19:22.017Z,5.47
2023-03-18T15:21:49.580Z,6.45
2023-03-18T15:24:23.012Z,7.47
2023-03-18T15:27:04.496Z,6.75
2023-03-18T15:29:37.215Z,10.30
2023-03-18T15:35:26.588Z,6.10
2023-03-18T15:38:20.574Z,6.40
2023-03-18T15:41:02.454Z,5.80
2023-03-18T15:43:41.277Z,5.10
2023-03-18T15:46:24.794Z,4.63
2023-03-18T15:48:57.738Z,4.15
2023-03-18T15:51:43.812Z,4.45
2023-03-18T15:54:39.740Z,4.10
2023-03-18T15:57:25.562Z,3.72
2023-03-18T15:59:53.949Z,4.10
2023-03-18T16:02:22.534Z,4.22
2023-03-18T16:04:50.385Z,3.50
2023-03-18T16:07:22.184Z,3.85
2023-03-18T16:09:51.234Z,3.72
2023-03-18T16:12:22.698Z,3.72
2023-03-18T16:14:52.316Z,3.53
2023-03-18T16:17:22.197Z,3.72
2023-03-18T16:19:54.318Z,3.53
2023-03-18T16:24:49.816Z,3.70
2023-03-18T16:27:33.028Z,3.47
2023-03-18T16:30:00.273Z,4.68
2023-03-18T16:32:28.553Z,5.00
2023-03-18T16:34:55.568Z,3.83
2023-03-18T16:37:27.739Z,4.03
2023-03-18T16:39:57.804Z,3.72
2023-03-18T16:42:25.276Z,3.83
2023-03-18T16:44:52.854Z,4.00
2023-03-18T16:47:27.693Z,3.85
2023-03-18T16:49:56.343Z,4.20
2023-03-18T16:52:23.609Z,4.03
2023-03-18T16:54:50.840Z,4.28
2023-03-18T16:57:21.646Z,4.40
2023-03-18T16:59:55.816Z,4.38
2023-03-18T17:02:35.160Z,4.72
2023-03-18T17:05:02.292Z,4.75
2023-03-18T17:07:29.622Z,5.30
2023-03-18T17:09:56.632Z,5.47
2023-03-18T17:12:24.879Z,5.88
2023-03-18T17:14:56.039Z,6.00
2023-03-18T17:17:38.141Z,6.53
2023-03-18T17:20:20.960Z,6.20
2023-03-18T17:22:49.026Z,7.57
2023-03-18T17:25:16.319Z,8.60
2023-03-18T17:28:03.002Z,8.50
2023-03-18T17:30:39.336Z,8.25
2023-03-18T17:33:25.773Z,8.30
2023-03-18T17:35:54.155Z,8.30
2023-03-18T17:38:21.896Z,9.23
2023-03-18T17:40:50.567Z,8.98
2023-03-18T17:43:31.672Z,8.77
2023-03-18T17:46:00.898Z,8.63
2023-03-18T17:48:37.387Z,9.10
2023-03-18T17:51:12.981Z,12.95
2023-03-18T17:53:59.451Z,16.83
2023-03-18T17:56:27.895Z,18.50
2023-03-18T17:58:55.198Z,19.13
2023-03-18T18:01:28.878Z,18.60
2023-03-18T18:03:59.583Z,18.55
2023-03-18T18:06:29.520Z,17.85
2023-03-18T18:09:02.332Z,16.85
2023-03-18T18:11:44.086Z,15.77
2023-03-18T18:14:21.453Z,15.25
2023-03-18T18:16:49.918Z,14.90
2023-03-18T18:19:18.931Z,15.10
2023-03-18T18:21:47.129Z,15.25
2023-03-18T18:24:28.836Z,14.90
2023-03-18T18:26:56.363Z,13.52
2023-03-18T18:29:28.114Z,14.23
2023-03-18T18:31:55.261Z,12.93
2023-03-18T18:34:22.655Z,13.48
2023-03-18T18:36:50.675Z,13.77
2023-03-18T18:39:18.195Z,13.55
2023-03-18T18:41:46.289Z,14.32
2023-03-18T18:44:14.079Z,15.20
2023-03-18T18:46:41.505Z,15.35
2023-03-18T18:49:22.877Z,15.73
2023-03-18T18:51:55.969Z,16.02
2023-03-18T18:54:24.443Z,16.02
2023-03-18T18:56:52.146Z,17.10
2023-03-18T18:59:30.999Z,17.95
2023-03-18T19:01:58.593Z,17.13
2023-03-18T19:04:27.320Z,17.35
2023-03-18T19:06:54.558Z,17.45
2023-03-18T19:09:26.487Z,17.58
2023-03-18T19:11:56.255Z,17.10
2023-03-18T19:14:28.084Z,17.83
2023-03-18T19:16:59.107Z,19.15
2023-03-18T19:19:30.905Z,20.60
2023-03-18T19:21:58.780Z,18.63
2023-03-18T19:24:39.161Z,19.48
2023-03-18T19:27:23.530Z,20.15
2023-03-18T19:29:53.403Z,20.33
2023-03-18T19:32:23.300Z,20.85
2023-03-18T19:34:52.930Z,23.02
2023-03-18T19:37:32.321Z,22.30
2023-03-18T19:40:13.710Z,22.00
2023-03-18T19:42:41.066Z,22.67
2023-03-18T19:45:13.141Z,23.73
2023-03-18T19:47:41.972Z,24.35
2023-03-18T19:50:16.320Z,23.50
2023-03-18T19:52:43.764Z,22.98
2023-03-18T19:55:15.881Z,22.33
2023-03-18T19:57:48.060Z,22.27
2023-03-18T20:00:24.735Z,23.08
2023-03-18T20:02:53.136Z,22.70
2023-03-18T20:05:23.531Z,23.30
2023-03-18T20:07:50.910Z,21.33
2023-03-18T20:10:21.305Z,22.52
2023-03-18T20:12:50.820Z,21.38
2023-03-18T20:15:33.063Z,22.45
2023-03-18T20:18:00.880Z,22.13
2023-03-18T20:20:32.576Z,21.70
2023-03-18T20:23:12.496Z,21.15
2023-03-18T20:25:44.669Z,20.15
2023-03-18T20:28:18.819Z,20.20
2023-03-18T20:30:50.983Z,20.23
2023-03-18T20:33:22.846Z,19.23
2023-03-18T20:35:53.525Z,20.17
2023-03-18T20:38:31.547Z,20.45
2023-03-18T20:41:00.367Z,22.13
2023-03-18T20:43:28.875Z,22.00
2023-03-18T20:45:58.928Z,22.52
2023-03-18T20:48:27.805Z,22.83
2023-03-18T20:50:56.506Z,23.00
2023-03-18T20:53:28.073Z,23.17
2023-03-18T20:55:56.042Z,22.90
2023-03-18T20:58:27.373Z,21.23
2023-03-18T21:00:55.012Z,22.80
2023-03-18T21:03:32.193Z,22.05
2023-03-18T21:06:03.733Z,21.10
2023-03-18T21:08:31.986Z,21.38
2023-03-18T21:11:02.035Z,22.00
2023-03-18T21:13:30.647Z,22.55
2023-03-18T21:15:59.724Z,24.40
2023-03-18T21:18:27.673Z,23.77
2023-03-18T21:20:56.656Z,22.73
2023-03-18T21:23:31.642Z,23.92
2023-03-18T21:26:00.370Z,23.58
2023-03-18T21:28:30.020Z,24.75
2023-03-18T21:30:58.590Z,24.83
2023-03-18T21:33:31.266Z,25.30
2023-03-18T21:35:59.813Z,25.20
2023-03-18T21:38:30.537Z,24.90
2023-03-18T21:41:00.761Z,25.05
2023-03-18T21:43:37.351Z,24.83
2023-03-18T21:46:12.625Z,24.25
2023-03-18T21:48:40.396Z,23.63
2023-03-18T21:51:37.138Z,23.30
2023-03-18T21:54:06.217Z,23.40
2023-03-18T21:56:33.491Z,23.77
2023-03-18T21:59:00.534Z,24.45
2023-03-18T22:01:32.073Z,22.92
2023-03-18T22:03:59.314Z,21.88
2023-03-18T22:06:26.575Z,22.65
2023-03-18T22:08:53.530Z,25.98
2023-03-18T22:11:24.836Z,27.60
2023-03-18T22:13:52.104Z,26.40
2023-03-18T22:16:19.408Z,26.23
2023-03-18T22:18:47.467Z,27.08
2023-03-18T22:21:23.162Z,26.77
2023-03-18T22:23:51.006Z,26.25
2023-03-18T22:26:20.062Z,26.77
2023-03-18T22:28:47.806Z,27.45
2023-03-18T22:31:22.626Z,24.95
2023-03-18T22:33:49.813Z,24.80
2023-03-18T22:36:19.578Z,24.98
2023-03-18T22:38:46.614Z,25.38
2023-03-18T22:41:21.000Z,26.10
2023-03-18T22:43:48.929Z,25.50
2023-03-18T22:46:16.370Z,25.55
2023-03-18T22:48:43.691Z,24.02
2023-03-18T22:51:26.042Z,23.63
2023-03-18T22:53:54.498Z,22.85
2023-03-18T22:56:22.900Z,22.13
2023-03-18T22:58:51.202Z,24.27
2023-03-18T23:01:31.600Z,24.88
2023-03-18T23:03:58.819Z,25.58
2023-03-18T23:06:27.092Z,26.05
2023-03-18T23:08:54.164Z,25.10
2023-03-18T23:11:21.514Z,25.20
2023-03-18T23:13:50.143Z,23.98
2023-03-18T23:16:21.848Z,23.88
2023-03-18T23:18:50.427Z,27.40
2023-03-18T23:21:21.808Z,25.17
2023-03-18T23:23:50.261Z,27.92
2023-03-18T23:26:17.669Z,26.42
2023-03-18T23:28:45.730Z,25.55
2023-03-18T23:31:15.372Z,26.15
2023-03-18T23:33:43.099Z,25.35
2023-03-18T23:36:11.846Z,25.33
2023-03-18T23:38:39.249Z,25.05
2023-03-18T23:41:07.247Z,24.73
2023-03-18T23:43:34.358Z,24.20
2023-03-18T23:46:02.262Z,25.08
2023-03-18T23:48:29.799Z,26.88
2023-03-18T23:50:57.061Z,24.98
2023-03-18T23:53:24.495Z,23.60
2023-03-18T23:55:51.685Z,23.60
2023-03-18T23:58:18.967Z,24.27
